createdAt,value
2018-01-23T00:01:56.368Z,1.90
2018-01-23T00:04:23.835Z,1.91
2018-01-23T00:06:51.289Z,1.84
2018-01-23T00:09:18.774Z,1.93
2018-01-23T00:11:46.232Z,1.92
2018-01-23T00:14:13.691Z,1.94
2018-01-23T00:16:41.190Z,1.89
2018-01-23T00:19:08.653Z,1.81
2018-01-23T00:21:36.164Z,1.79
2018-01-23T00:24:03.670Z,1.78
2018-01-23T00:26:31.132Z,1.79
2018-01-23T00:28:58.614Z,1.90
2018-01-23T00:31:26.098Z,1.95
2018-01-23T00:33:53.554Z,2.03
2018-01-23T00:36:21.029Z,1.95
2018-01-23T00:38:48.509Z,1.97
2018-01-23T00:41:15.994Z,2.03
2018-01-23T00:43:43.468Z,2.09
2018-01-23T00:46:10.927Z,2.15
2018-01-23T00:48:38.908Z,2.16
2018-01-23T00:51:06.413Z,2.09
2018-01-23T00:53:33.870Z,2.11
2018-01-23T00:56:01.499Z,2.14
2018-01-23T00:58:29.015Z,2.08
2018-01-23T01:00:56.467Z,2.12
2018-01-23T01:03:23.915Z,2.10
2018-01-23T01:05:51.382Z,2.10
2018-01-23T01:08:18.858Z,2.03
2018-01-23T01:10:46.369Z,2.09
2018-01-23T01:13:13.835Z,2.18
2018-01-23T01:15:41.286Z,2.20
2018-01-23T01:18:08.742Z,2.16
2018-01-23T01:20:36.258Z,2.19
2018-01-23T01:23:03.724Z,2.28
2018-01-23T01:25:31.189Z,2.24
2018-01-23T01:27:58.660Z,2.27
2018-01-23T01:30:26.122Z,2.28
2018-01-23T01:32:53.574Z,2.28
2018-01-23T01:35:21.038Z,2.27
2018-01-23T01:37:48.498Z,2.35
2018-01-23T01:40:15.950Z,2.42
2018-01-23T01:42:43.406Z,2.45
2018-01-23T01:45:10.937Z,2.43
2018-01-23T01:47:38.402Z,2.55
2018-01-23T01:50:06.086Z,2.59
2018-01-23T01:52:33.555Z,2.51
2018-01-23T01:55:01.025Z,2.57
2018-01-23T01:57:28.468Z,2.56
2018-01-23T01:59:55.936Z,2.54
2018-01-23T02:02:23.394Z,2.51
2018-01-23T02:04:50.847Z,2.59
2018-01-23T02:07:18.381Z,2.50
2018-01-23T02:09:45.843Z,2.52
2018-01-23T02:12:13.303Z,2.52
2018-01-23T02:14:40.783Z,2.45
2018-01-23T02:17:08.312Z,2.41
2018-01-23T02:19:35.786Z,2.27
2018-01-23T02:22:03.238Z,2.19
2018-01-23T02:24:30.718Z,2.32
2018-01-23T02:26:58.181Z,2.40
2018-01-23T02:29:25.628Z,2.33
2018-01-23T02:31:53.121Z,2.34
2018-01-23T02:34:20.570Z,2.28
2018-01-23T02:36:48.034Z,2.20
2018-01-23T02:39:15.703Z,2.22
2018-01-23T02:41:43.167Z,2.18
2018-01-23T02:44:10.909Z,2.13
2018-01-23T02:46:38.384Z,2.15
2018-01-23T02:49:05.875Z,2.05
2018-01-23T02:51:33.336Z,1.94
2018-01-23T02:54:00.895Z,1.95
2018-01-23T02:56:28.350Z,1.90
2018-01-23T02:58:55.820Z,1.85
2018-01-23T03:01:23.282Z,1.86
2018-01-23T03:03:50.741Z,1.88
2018-01-23T03:06:18.227Z,1.83
2018-01-23T03:08:45.727Z,1.80
2018-01-23T03:11:13.298Z,1.79
2018-01-23T03:13:40.771Z,1.93
2018-01-23T03:16:08.381Z,1.93
2018-01-23T03:18:35.855Z,2.01
2018-01-23T03:21:03.366Z,1.95
2018-01-23T03:23:30.786Z,2.03
2018-01-23T03:25:58.250Z,1.99
2018-01-23T03:28:25.710Z,2.08
2018-01-23T03:30:53.184Z,1.96
2018-01-23T03:33:20.653Z,1.93
2018-01-23T03:35:48.102Z,2.18
2018-01-23T03:38:16.402Z,2.41
2018-01-23T03:40:43.862Z,2.66
2018-01-23T03:43:11.307Z,2.84
2018-01-23T03:45:38.784Z,3.01
2018-01-23T03:48:06.258Z,3.12
2018-01-23T03:50:33.722Z,3.12
2018-01-23T03:53:01.175Z,3.15
2018-01-23T03:55:28.635Z,3.20
2018-01-23T03:57:56.089Z,3.20
2018-01-23T04:00:23.533Z,3.26
2018-01-23T04:02:51.012Z,3.38
2018-01-23T04:05:18.462Z,3.34
2018-01-23T04:07:45.919Z,3.36
2018-01-23T04:10:13.422Z,3.30
2018-01-23T04:12:40.941Z,3.23
2018-01-23T04:15:08.388Z,3.24
2018-01-23T04:17:35.855Z,3.31
2018-01-23T04:20:03.307Z,3.37
2018-01-23T04:22:30.758Z,3.45
2018-01-23T04:24:58.272Z,3.37
2018-01-23T04:27:25.720Z,3.38
2018-01-23T04:29:53.171Z,3.51
2018-01-23T04:32:20.661Z,3.53
2018-01-23T04:34:48.154Z,3.60
2018-01-23T04:37:15.593Z,3.47
2018-01-23T04:39:43.077Z,3.44
2018-01-23T04:42:10.516Z,3.41
2018-01-23T04:44:38.006Z,3.42
2018-01-23T04:47:05.498Z,3.50
2018-01-23T04:49:32.958Z,3.50
2018-01-23T04:52:00.415Z,3.51
2018-01-23T04:54:27.892Z,3.62
2018-01-23T04:56:55.350Z,3.58
2018-01-23T04:59:22.806Z,3.56
2018-01-23T05:01:50.291Z,3.65
2018-01-23T05:04:18.643Z,3.61
2018-01-23T05:06:46.111Z,3.65
2018-01-23T05:09:13.599Z,3.69
2018-01-23T05:11:41.041Z,3.66
2018-01-23T05:14:08.576Z,3.75
2018-01-23T05:16:36.045Z,3.73
2018-01-23T05:19:03.503Z,3.67
2018-01-23T05:21:30.946Z,3.91
2018-01-23T05:23:58.454Z,3.99
2018-01-23T05:26:25.891Z,4.02
2018-01-23T05:28:53.347Z,4.06
2018-01-23T05:31:20.849Z,3.96
2018-01-23T05:33:48.315Z,4.08
2018-01-23T05:36:15.823Z,4.05
2018-01-23T05:38:43.307Z,4.01
2018-01-23T05:41:10.804Z,4.17
2018-01-23T05:43:38.252Z,4.17
2018-01-23T05:46:05.727Z,4.22
2018-01-23T05:48:33.198Z,4.30
2018-01-23T05:51:00.655Z,4.25
2018-01-23T05:53:28.135Z,4.24
2018-01-23T05:55:55.599Z,4.20
2018-01-23T05:58:23.460Z,4.21
2018-01-23T06:00:51.028Z,4.29
2018-01-23T06:03:18.542Z,4.26
2018-01-23T06:05:46.104Z,4.44
2018-01-23T06:08:13.571Z,4.34
2018-01-23T06:10:41.075Z,4.33
2018-01-23T06:13:08.564Z,4.32
2018-01-23T06:15:36.066Z,4.30
2018-01-23T06:18:03.527Z,4.34
2018-01-23T06:20:31.298Z,4.33
2018-01-23T06:22:58.776Z,4.48
2018-01-23T06:25:26.259Z,4.43
2018-01-23T06:27:53.743Z,4.47
2018-01-23T06:30:21.212Z,4.42
2018-01-23T06:32:48.681Z,4.48
2018-01-23T06:35:16.139Z,4.35
2018-01-23T06:37:43.602Z,4.35
2018-01-23T06:40:11.133Z,4.41
2018-01-23T06:42:38.593Z,4.33
2018-01-23T06:45:06.071Z,4.36
2018-01-23T06:47:33.543Z,4.40
2018-01-23T06:50:01.051Z,4.42
2018-01-23T06:52:28.518Z,4.43
2018-01-23T06:54:56.088Z,4.50
2018-01-23T06:57:23.572Z,4.49
2018-01-23T06:59:51.135Z,4.46
2018-01-23T07:02:18.614Z,4.45
2018-01-23T07:04:46.116Z,4.62
2018-01-23T07:07:13.578Z,4.73
2018-01-23T07:09:41.049Z,4.66
2018-01-23T07:12:08.583Z,4.60
2018-01-23T07:14:36.059Z,4.65
2018-01-23T07:17:03.510Z,4.75
2018-01-23T07:19:30.967Z,4.81
2018-01-23T07:21:58.526Z,4.88
2018-01-23T07:24:26.001Z,4.80
2018-01-23T07:26:53.474Z,4.84
2018-01-23T07:29:20.966Z,4.80
2018-01-23T07:31:48.547Z,5.06
2018-01-23T07:34:16.010Z,5.35
2018-01-23T07:36:43.476Z,5.58
2018-01-23T07:39:10.967Z,5.69
2018-01-23T07:41:38.435Z,5.74
2018-01-23T07:44:05.910Z,5.72
2018-01-23T07:46:33.388Z,5.82
2018-01-23T07:49:00.865Z,5.74
2018-01-23T07:51:28.341Z,5.85
2018-01-23T07:53:55.834Z,5.85
2018-01-23T07:56:23.356Z,5.61
2018-01-23T07:58:50.898Z,5.58
2018-01-23T08:01:18.464Z,5.56
2018-01-23T08:03:45.928Z,5.68
2018-01-23T08:06:13.439Z,5.81
2018-01-23T08:08:40.907Z,5.72
2018-01-23T08:11:08.364Z,5.61
2018-01-23T08:13:35.863Z,5.71
2018-01-23T08:16:03.354Z,5.72
2018-01-23T08:18:30.833Z,5.71
2018-01-23T08:20:58.334Z,5.82
2018-01-23T08:25:59.695Z,5.77
2018-01-23T08:28:27.146Z,5.96
2018-01-23T08:30:54.610Z,6.00
2018-01-23T08:33:22.070Z,6.11
2018-01-23T08:35:49.560Z,5.99
2018-01-23T08:38:17.151Z,5.63
2018-01-23T08:40:44.628Z,5.34
2018-01-23T08:43:12.088Z,5.27
2018-01-23T08:45:40.024Z,5.08
2018-01-23T08:48:07.490Z,4.99
2018-01-23T08:50:34.962Z,5.02
2018-01-23T08:53:02.423Z,4.85
2018-01-23T08:55:29.935Z,4.87
2018-01-23T08:57:57.509Z,4.77
2018-01-23T09:00:24.998Z,4.80
2018-01-23T09:02:52.706Z,4.79
2018-01-23T09:05:20.182Z,4.76
2018-01-23T09:07:47.642Z,4.67
2018-01-23T09:10:15.098Z,4.61
2018-01-23T09:12:42.612Z,4.70
2018-01-23T09:15:10.070Z,4.64
2018-01-23T09:17:37.529Z,4.67
2018-01-23T09:20:04.998Z,4.65
2018-01-23T09:22:32.468Z,4.85
2018-01-23T09:24:59.929Z,4.85
2018-01-23T09:27:27.396Z,4.84
2018-01-23T09:29:54.917Z,4.90
2018-01-23T09:32:22.483Z,5.04
2018-01-23T09:34:50.005Z,5.16
2018-01-23T09:37:17.492Z,5.36
2018-01-23T09:39:44.986Z,5.48
2018-01-23T09:42:12.475Z,5.57
2018-01-23T09:44:40.037Z,5.79
2018-01-23T09:47:07.540Z,5.76
2018-01-23T09:49:35.119Z,5.80
2018-01-23T09:52:02.633Z,5.87
2018-01-23T09:54:30.113Z,5.89
2018-01-23T09:56:57.583Z,5.86
2018-01-23T09:59:25.067Z,5.90
2018-01-23T10:01:52.659Z,6.07
2018-01-23T10:04:20.175Z,6.05
2018-01-23T10:06:47.650Z,5.98
2018-01-23T10:09:15.115Z,6.06
2018-01-23T10:11:42.599Z,6.12
2018-01-23T10:14:10.082Z,6.12
2018-01-23T10:16:37.566Z,6.09
2018-01-23T10:19:05.151Z,6.10
2018-01-23T10:21:32.670Z,6.01
2018-01-23T10:24:00.167Z,6.01
2018-01-23T10:26:27.666Z,6.02
2018-01-23T10:28:55.196Z,5.94
2018-01-23T10:31:22.939Z,5.89
2018-01-23T10:33:50.397Z,5.98
2018-01-23T10:36:17.909Z,6.07
2018-01-23T10:38:45.418Z,6.16
2018-01-23T10:41:12.983Z,6.31
2018-01-23T10:43:40.544Z,6.29
2018-01-23T10:46:08.015Z,6.26
2018-01-23T10:48:35.678Z,6.31
2018-01-23T10:51:03.166Z,6.43
2018-01-23T10:53:30.710Z,6.42
2018-01-23T10:55:58.228Z,6.52
2018-01-23T10:58:25.724Z,6.62
2018-01-23T11:00:58.763Z,6.90
2018-01-23T11:03:26.280Z,6.86
2018-01-23T11:05:53.758Z,6.93
2018-01-23T11:08:21.226Z,7.01
2018-01-23T11:10:48.707Z,7.12
2018-01-23T11:13:16.187Z,7.14
2018-01-23T11:15:43.667Z,6.99
2018-01-23T11:18:11.166Z,7.06
2018-01-23T11:20:38.650Z,6.96
2018-01-23T11:23:06.120Z,6.93
2018-01-23T11:25:33.599Z,7.12
2018-01-23T11:28:01.083Z,7.05
2018-01-23T11:30:28.597Z,7.11
2018-01-23T11:32:56.075Z,7.19
2018-01-23T11:35:23.533Z,7.11
2018-01-23T11:37:51.075Z,7.26
2018-01-23T11:40:18.566Z,7.40
2018-01-23T11:42:46.198Z,7.38
2018-01-23T11:45:13.670Z,7.56
2018-01-23T11:47:41.146Z,7.81
2018-01-23T11:50:08.632Z,7.64
2018-01-23T11:52:36.899Z,7.53
2018-01-23T11:55:04.654Z,7.63
2018-01-23T11:57:32.123Z,7.59
2018-01-23T11:59:59.595Z,7.36
2018-01-23T12:02:27.096Z,7.41
2018-01-23T12:04:54.565Z,7.50
2018-01-23T12:07:22.038Z,7.33
2018-01-23T12:09:49.568Z,7.17
2018-01-23T12:12:17.057Z,6.99
2018-01-23T12:14:44.538Z,7.01
2018-01-23T12:17:12.038Z,6.88
2018-01-23T12:19:39.503Z,6.89
2018-01-23T12:22:06.981Z,6.89
2018-01-23T12:24:34.458Z,6.93
2018-01-23T12:27:01.938Z,7.03
2018-01-23T12:29:29.459Z,7.09
2018-01-23T12:31:56.945Z,7.26
2018-01-23T12:34:24.432Z,7.22
2018-01-23T12:36:51.932Z,7.38
2018-01-23T12:39:19.460Z,7.27
2018-01-23T12:41:47.125Z,7.47
2018-01-23T12:44:14.623Z,7.22
2018-01-23T12:46:42.148Z,7.10
2018-01-23T12:49:09.782Z,7.04
2018-01-23T12:51:37.288Z,7.11
2018-01-23T12:54:05.407Z,7.17
2018-01-23T12:56:32.890Z,7.25
2018-01-23T12:59:00.496Z,7.17
2018-01-23T13:01:28.070Z,7.21
2018-01-23T13:03:55.596Z,7.04
2018-01-23T13:06:23.813Z,7.14
2018-01-23T13:08:51.315Z,6.91
2018-01-23T13:11:18.785Z,6.82
2018-01-23T13:13:46.300Z,6.85
2018-01-23T13:16:13.786Z,7.06
2018-01-23T13:18:41.289Z,7.04
2018-01-23T13:21:08.793Z,6.89
2018-01-23T13:23:36.279Z,6.86
2018-01-23T13:26:03.755Z,6.89
2018-01-23T13:28:31.920Z,6.82
2018-01-23T13:30:59.429Z,6.89
2018-01-23T13:33:26.898Z,6.83
2018-01-23T13:35:54.402Z,6.97
2018-01-23T13:38:21.906Z,7.06
2018-01-23T13:40:49.414Z,7.20
2018-01-23T13:43:16.923Z,7.14
2018-01-23T13:45:44.397Z,7.08
2018-01-23T13:48:11.866Z,7.10
2018-01-23T13:50:39.351Z,7.19
2018-01-23T13:53:06.832Z,7.15
2018-01-23T13:55:34.349Z,7.05
2018-01-23T13:58:01.869Z,7.12
2018-01-23T14:00:29.382Z,7.04
2018-01-23T14:02:56.899Z,7.13
2018-01-23T14:05:24.378Z,7.16
2018-01-23T14:07:51.916Z,7.28
2018-01-23T14:10:19.467Z,7.17
2018-01-23T14:12:46.938Z,7.02
2018-01-23T14:15:14.473Z,6.99
2018-01-23T14:17:41.985Z,7.01
2018-01-23T14:20:09.531Z,6.94
2018-01-23T14:22:37.034Z,6.99
2018-01-23T14:25:04.507Z,6.98
2018-01-23T14:27:32.022Z,7.06
2018-01-23T14:29:59.580Z,6.92
2018-01-23T14:32:27.076Z,6.83
2018-01-23T14:34:54.635Z,6.87
2018-01-23T14:37:22.124Z,6.79
2018-01-23T14:39:49.603Z,6.73
2018-01-23T14:42:17.099Z,6.72
2018-01-23T14:44:44.583Z,6.82
2018-01-23T14:47:12.214Z,6.65
2018-01-23T14:49:39.805Z,6.65
2018-01-23T14:52:07.440Z,6.57
2018-01-23T14:54:35.126Z,6.59
2018-01-23T14:57:02.662Z,6.60
2018-01-23T14:59:30.170Z,6.71
2018-01-23T15:01:57.687Z,6.74
2018-01-23T15:04:25.260Z,6.69
2018-01-23T15:06:52.782Z,6.60
2018-01-23T15:09:20.422Z,6.70
2018-01-23T15:11:47.882Z,6.68
2018-01-23T15:14:15.511Z,6.68
2018-01-23T15:16:43.021Z,6.60
2018-01-23T15:19:10.519Z,6.73
2018-01-23T15:21:38.020Z,6.66
2018-01-23T15:24:05.548Z,6.70
2018-01-23T15:26:33.164Z,6.60
2018-01-23T15:29:00.729Z,6.60
2018-01-23T15:31:28.206Z,6.41
2018-01-23T15:33:55.706Z,6.46
2018-01-23T15:36:23.248Z,6.38
2018-01-23T15:38:50.699Z,6.49
2018-01-23T15:41:18.213Z,6.41
2018-01-23T15:43:45.901Z,6.36
2018-01-23T15:46:13.462Z,6.40
2018-01-23T15:48:40.950Z,6.43
2018-01-23T15:51:09.015Z,6.36
2018-01-23T15:53:36.494Z,6.42
2018-01-23T15:56:04.014Z,6.40
2018-01-23T15:58:31.485Z,6.42
2018-01-23T16:00:58.998Z,6.44
2018-01-23T16:03:26.513Z,6.39
2018-01-23T16:05:53.979Z,6.36
2018-01-23T16:08:21.464Z,6.32
2018-01-23T16:10:48.967Z,6.24
2018-01-23T16:13:16.453Z,6.31
2018-01-23T16:15:43.933Z,6.28
2018-01-23T16:18:11.441Z,6.27
2018-01-23T16:20:39.362Z,6.31
2018-01-23T16:23:06.860Z,6.35
2018-01-23T16:25:34.363Z,6.43
2018-01-23T16:28:02.029Z,6.31
2018-01-23T16:30:29.542Z,6.40
2018-01-23T16:32:57.066Z,6.39
2018-01-23T16:35:25.015Z,6.36
2018-01-23T16:37:52.585Z,6.35
2018-01-23T16:40:20.071Z,6.37
2018-01-23T16:42:47.632Z,6.44
2018-01-23T16:45:15.170Z,6.50
2018-01-23T16:47:42.696Z,6.37
2018-01-23T16:50:10.190Z,6.51
2018-01-23T16:52:37.738Z,6.45
2018-01-23T16:55:05.359Z,6.51
2018-01-23T16:57:32.899Z,6.45
2018-01-23T17:00:00.403Z,6.48
2018-01-23T17:02:27.905Z,6.46
2018-01-23T17:04:56.079Z,6.41
2018-01-23T17:07:23.640Z,6.46
2018-01-23T17:09:51.128Z,6.39
2018-01-23T17:12:18.631Z,6.45
2018-01-23T17:14:46.153Z,6.40
2018-01-23T17:17:13.654Z,6.44
2018-01-23T17:19:41.139Z,6.47
2018-01-23T17:22:08.686Z,6.44
2018-01-23T17:24:36.211Z,6.52
2018-01-23T17:27:03.731Z,6.58
2018-01-23T17:29:31.228Z,6.53
2018-01-23T17:31:58.740Z,6.48
2018-01-23T17:34:26.279Z,6.34
2018-01-23T17:36:53.749Z,6.31
2018-01-23T17:39:21.278Z,6.31
2018-01-23T17:41:48.789Z,6.36
2018-01-23T17:44:16.288Z,6.30
2018-01-23T17:46:43.783Z,6.42
2018-01-23T17:49:11.351Z,6.34
2018-01-23T17:51:38.850Z,6.34
2018-01-23T17:54:06.411Z,6.31
2018-01-23T17:56:34.348Z,6.34
2018-01-23T17:59:01.847Z,6.42
2018-01-23T18:01:30.391Z,6.44
2018-01-23T18:03:57.896Z,6.46
2018-01-23T18:06:25.392Z,6.47
2018-01-23T18:08:52.920Z,6.41
2018-01-23T18:11:20.397Z,6.49
2018-01-23T18:13:48.150Z,6.48
2018-01-23T18:16:15.694Z,6.49
2018-01-23T18:18:43.215Z,6.55
2018-01-23T18:21:10.748Z,6.51
2018-01-23T18:23:38.253Z,6.47
2018-01-23T18:26:05.728Z,6.41
2018-01-23T18:28:33.251Z,6.39
2018-01-23T18:31:00.957Z,6.48
2018-01-23T18:33:28.465Z,6.47
2018-01-23T18:35:55.954Z,6.53
2018-01-23T18:38:23.481Z,6.56
2018-01-23T18:40:50.982Z,6.49
2018-01-23T18:43:18.551Z,6.56
2018-01-23T18:45:46.087Z,6.64
2018-01-23T18:48:13.601Z,6.62
2018-01-23T18:50:41.078Z,6.53
2018-01-23T18:53:08.662Z,6.60
2018-01-23T18:55:36.134Z,6.60
2018-01-23T18:58:03.618Z,6.62
2018-01-23T19:00:31.112Z,6.63
2018-01-23T19:02:59.268Z,6.60
2018-01-23T19:05:26.789Z,6.63
2018-01-23T19:07:54.266Z,6.57
2018-01-23T19:10:21.794Z,6.64
2018-01-23T19:12:49.284Z,6.56
2018-01-23T19:15:16.812Z,6.48
2018-01-23T19:17:44.366Z,6.54
2018-01-23T19:20:11.910Z,6.56
2018-01-23T19:22:39.617Z,6.50
2018-01-23T19:25:07.128Z,6.53
2018-01-23T19:27:34.664Z,6.54
2018-01-23T19:30:02.186Z,6.55
2018-01-23T19:32:29.779Z,6.65
2018-01-23T19:34:57.516Z,6.62
2018-01-23T19:37:25.068Z,6.59
2018-01-23T19:39:52.854Z,6.58
2018-01-23T19:42:20.741Z,6.63
2018-01-23T19:44:48.519Z,6.57
2018-01-23T19:47:16.384Z,6.50
2018-01-23T19:49:43.959Z,6.48
2018-01-23T19:52:11.457Z,6.45
2018-01-23T19:54:39.261Z,6.46
2018-01-23T19:57:06.885Z,6.43
2018-01-23T19:59:34.657Z,6.55
2018-01-23T20:02:02.499Z,6.45
2018-01-23T20:04:30.306Z,6.61
2018-01-23T20:06:58.186Z,6.55
2018-01-23T20:09:25.825Z,6.59
2018-01-23T20:11:53.349Z,6.61
2018-01-23T20:14:20.859Z,6.57
2018-01-23T20:16:48.716Z,6.64
2018-01-23T20:19:16.279Z,6.62
2018-01-23T20:21:43.790Z,6.54
2018-01-23T20:24:11.631Z,6.45
2018-01-23T20:26:39.516Z,6.47
2018-01-23T20:29:07.315Z,6.52
2018-01-23T20:31:34.827Z,6.44
2018-01-23T20:34:02.360Z,6.38
2018-01-23T20:36:29.908Z,6.39
2018-01-23T20:38:57.511Z,6.48
2018-01-23T20:41:25.031Z,6.45
2018-01-23T20:43:52.507Z,6.40
2018-01-23T20:46:20.068Z,6.47
2018-01-23T20:48:47.535Z,6.47
2018-01-23T20:51:15.039Z,6.46
2018-01-23T20:53:42.623Z,6.42
2018-01-23T20:56:10.108Z,6.50
2018-01-23T20:58:37.598Z,6.46
2018-01-23T21:01:05.122Z,6.42
2018-01-23T21:03:33.356Z,6.41
2018-01-23T21:06:00.849Z,6.43
2018-01-23T21:08:28.381Z,6.44
2018-01-23T21:10:55.845Z,6.50
2018-01-23T21:13:23.334Z,6.53
2018-01-23T21:15:50.870Z,6.46
2018-01-23T21:18:18.356Z,6.57
2018-01-23T21:20:45.972Z,6.51
2018-01-23T21:23:13.482Z,6.50
2018-01-23T21:25:40.978Z,6.55
2018-01-23T21:28:08.475Z,6.56
2018-01-23T21:30:35.988Z,6.51
2018-01-23T21:33:03.496Z,6.51
2018-01-23T21:35:31.654Z,6.50
2018-01-23T21:37:59.138Z,6.55
2018-01-23T21:40:26.698Z,6.51
2018-01-23T21:42:54.261Z,6.53
2018-01-23T21:45:21.762Z,6.53
2018-01-23T21:47:49.955Z,6.56
2018-01-23T21:50:17.499Z,6.52
2018-01-23T21:52:44.991Z,6.69
2018-01-23T21:55:12.487Z,6.60
2018-01-23T21:57:39.964Z,6.50
2018-01-23T22:00:07.453Z,6.41
2018-01-23T22:02:34.960Z,6.36
2018-01-23T22:05:02.460Z,6.34
2018-01-23T22:07:30.044Z,6.30
2018-01-23T22:10:04.228Z,6.29
2018-01-23T22:12:31.690Z,6.26
2018-01-23T22:14:59.170Z,6.24
2018-01-23T22:17:26.702Z,6.28
2018-01-23T22:19:54.546Z,6.22
2018-01-23T22:22:21.988Z,6.27
2018-01-23T22:24:49.540Z,6.25
2018-01-23T22:27:17.038Z,6.21
2018-01-23T22:29:44.550Z,6.18
2018-01-23T22:32:12.105Z,6.17
2018-01-23T22:34:39.627Z,6.17
2018-01-23T22:37:07.140Z,6.17
2018-01-23T22:39:34.666Z,6.16
2018-01-23T22:42:02.156Z,6.24
2018-01-23T22:44:30.997Z,6.29
2018-01-23T22:46:58.528Z,6.24
2018-01-23T22:49:26.087Z,6.20
2018-01-23T22:52:00.863Z,6.17
2018-01-23T22:54:28.540Z,6.18
2018-01-23T22:56:56.019Z,6.15
2018-01-23T22:59:24.314Z,6.17
2018-01-23T23:01:51.811Z,6.19
2018-01-23T23:04:19.281Z,6.15
2018-01-23T23:06:46.783Z,6.16
2018-01-23T23:09:14.538Z,6.13
2018-01-23T23:11:42.026Z,6.08
2018-01-23T23:14:09.636Z,6.04
2018-01-23T23:16:37.117Z,6.00
2018-01-23T23:19:04.592Z,5.97
2018-01-23T23:21:32.047Z,5.93
2018-01-23T23:23:59.505Z,5.91
2018-01-23T23:26:27.005Z,5.89
2018-01-23T23:28:54.487Z,5.86
2018-01-23T23:31:22.047Z,5.83
2018-01-23T23:33:49.552Z,5.81
2018-01-23T23:36:17.092Z,5.79
2018-01-23T23:38:44.593Z,5.81
2018-01-23T23:41:12.181Z,5.81
2018-01-23T23:43:39.660Z,5.80
2018-01-23T23:46:07.122Z,5.77
2018-01-23T23:48:34.591Z,5.75
2018-01-23T23:51:02.081Z,5.72
2018-01-23T23:53:29.618Z,5.71
2018-01-23T23:55:57.163Z,5.69
2018-01-23T23:58:24.627Z,5.72
